sensor_id;sensor_type;location;lat;lon;timestamp;temperature;humidity
47162;DHT22;32921;53.256;8.198;2022-12-05T00:02:20;4.90;99.90
47162;DHT22;32921;53.256;8.198;2022-12-05T00:04:45;4.90;99.90
47162;DHT22;32921;53.256;8.198;2022-12-05T00:07:11;4.90;99.90
47162;DHT22;32921;53.256;8.198;2022-12-05T00:09:37;4.90;99.90
47162;DHT22;32921;53.256;8.198;2022-12-05T00:12:02;5.00;99.90
47162;DHT22;32921;53.256;8.198;2022-12-05T00:14:28;5.00;99.90
47162;DHT22;32921;53.256;8.198;2022-12-05T00:16:54;5.00;99.90
47162;DHT22;32921;53.256;8.198;2022-12-05T00:19:19;5.00;99.90
47162;DHT22;32921;53.256;8.198;2022-12-05T00:21:45;5.00;99.90
47162;DHT22;32921;53.256;8.198;2022-12-05T00:24:12;5.00;99.90
47162;DHT22;32921;53.256;8.198;2022-12-05T00:26:38;5.00;99.90
47162;DHT22;32921;53.256;8.198;2022-12-05T00:29:04;5.00;99.90
47162;DHT22;32921;53.256;8.198;2022-12-05T00:31:29;5.10;99.90
47162;DHT22;32921;53.256;8.198;2022-12-05T00:33:59;5.10;99.90
47162;DHT22;32921;53.256;8.198;2022-12-05T00:36:27;5.10;99.90
47162;DHT22;32921;53.256;8.198;2022-12-05T00:38:53;5.10;99.90
47162;DHT22;32921;53.256;8.198;2022-12-05T00:41:29;5.10;99.90
47162;DHT22;32921;53.256;8.198;2022-12-05T00:43:56;5.10;99.90
47162;DHT22;32921;53.256;8.198;2022-12-05T00:46:24;5.20;99.90
47162;DHT22;32921;53.256;8.198;2022-12-05T00:48:52;5.20;99.90
47162;DHT22;32921;53.256;8.198;2022-12-05T00:51:23;5.20;99.90
47162;DHT22;32921;53.256;8.198;2022-12-05T00:53:51;5.20;99.90
47162;DHT22;32921;53.256;8.198;2022-12-05T00:56:21;5.20;99.90
47162;DHT22;32921;53.256;8.198;2022-12-05T00:58:48;5.20;99.90
47162;DHT22;32921;53.256;8.198;2022-12-05T01:01:20;5.20;99.90
47162;DHT22;32921;53.256;8.198;2022-12-05T01:03:47;5.20;99.90
47162;DHT22;32921;53.256;8.198;2022-12-05T01:06:14;5.20;99.90
47162;DHT22;32921;53.256;8.198;2022-12-05T01:08:40;5.20;99.90
47162;DHT22;32921;53.256;8.198;2022-12-05T01:11:07;5.20;99.90
47162;DHT22;32921;53.256;8.198;2022-12-05T01:13:33;5.20;99.90
47162;DHT22;32921;53.256;8.198;2022-12-05T01:16:00;5.20;99.90
47162;DHT22;32921;53.256;8.198;2022-12-05T01:18:26;5.20;99.90
47162;DHT22;32921;53.256;8.198;2022-12-05T01:20:52;5.20;99.90
47162;DHT22;32921;53.256;8.198;2022-12-05T01:23:18;5.20;99.90
47162;DHT22;32921;53.256;8.198;2022-12-05T01:25:47;5.20;99.90
47162;DHT22;32921;53.256;8.198;2022-12-05T01:28:13;5.20;99.90
47162;DHT22;32921;53.256;8.198;2022-12-05T01:30:41;5.20;99.90
47162;DHT22;32921;53.256;8.198;2022-12-05T01:33:07;5.20;99.90
47162;DHT22;32921;53.256;8.198;2022-12-05T01:35:34;5.20;99.90
47162;DHT22;32921;53.256;8.198;2022-12-05T01:38:00;5.20;99.90
47162;DHT22;32921;53.256;8.198;2022-12-05T01:40:26;5.20;99.90
47162;DHT22;32921;53.256;8.198;2022-12-05T01:42:51;5.20;99.90
47162;DHT22;32921;53.256;8.198;2022-12-05T01:45:25;5.20;99.90
47162;DHT22;32921;53.256;8.198;2022-12-05T01:47:55;5.20;99.90
47162;DHT22;32921;53.256;8.198;2022-12-05T01:50:21;5.10;99.90
47162;DHT22;32921;53.256;8.198;2022-12-05T01:52:47;5.10;99.90
47162;DHT22;32921;53.256;8.198;2022-12-05T01:55:13;5.10;99.90
47162;DHT22;32921;53.256;8.198;2022-12-05T01:57:40;5.10;99.90
47162;DHT22;32921;53.256;8.198;2022-12-05T02:00:38;5.10;99.90
47162;DHT22;32921;53.256;8.198;2022-12-05T02:03:07;5.10;99.90
47162;DHT22;32921;53.256;8.198;2022-12-05T02:05:35;5.00;99.90
47162;DHT22;32921;53.256;8.198;2022-12-05T02:08:05;5.00;99.90
47162;DHT22;32921;53.256;8.198;2022-12-05T02:10:35;5.00;99.90
47162;DHT22;32921;53.256;8.198;2022-12-05T02:13:30;5.00;99.90
47162;DHT22;32921;53.256;8.198;2022-12-05T02:16:10;5.00;99.90
47162;DHT22;32921;53.256;8.198;2022-12-05T02:18:50;5.00;99.90
47162;DHT22;32921;53.256;8.198;2022-12-05T02:30:17;5.00;99.90
47162;DHT22;32921;53.256;8.198;2022-12-05T02:33:09;5.00;99.90
47162;DHT22;32921;53.256;8.198;2022-12-05T02:38:29;5.00;99.90
47162;DHT22;32921;53.256;8.198;2022-12-05T02:41:25;4.90;99.90
47162;DHT22;32921;53.256;8.198;2022-12-05T02:44:04;4.90;99.90
47162;DHT22;32921;53.256;8.198;2022-12-05T02:46:34;4.90;99.90
47162;DHT22;32921;53.256;8.198;2022-12-05T02:49:09;4.90;99.90
47162;DHT22;32921;53.256;8.198;2022-12-05T02:51:42;4.90;99.90
47162;DHT22;32921;53.256;8.198;2022-12-05T02:54:12;4.90;99.90
47162;DHT22;32921;53.256;8.198;2022-12-05T02:56:39;4.90;99.90
47162;DHT22;32921;53.256;8.198;2022-12-05T02:59:06;4.80;99.90
47162;DHT22;32921;53.256;8.198;2022-12-05T03:01:32;4.90;99.90
47162;DHT22;32921;53.256;8.198;2022-12-05T03:04:00;4.90;99.90
47162;DHT22;32921;53.256;8.198;2022-12-05T03:06:36;4.80;99.90
47162;DHT22;32921;53.256;8.198;2022-12-05T03:09:12;4.80;99.90
47162;DHT22;32921;53.256;8.198;2022-12-05T03:11:43;4.80;99.90
47162;DHT22;32921;53.256;8.198;2022-12-05T03:14:17;4.90;99.90
47162;DHT22;32921;53.256;8.198;2022-12-05T03:16:51;4.90;99.90
47162;DHT22;32921;53.256;8.198;2022-12-05T03:19:57;4.90;99.90
47162;DHT22;32921;53.256;8.198;2022-12-05T03:22:45;4.90;99.90
47162;DHT22;32921;53.256;8.198;2022-12-05T03:25:14;5.00;99.90
47162;DHT22;32921;53.256;8.198;2022-12-05T03:27:51;5.00;99.90
47162;DHT22;32921;53.256;8.198;2022-12-05T03:30:20;5.00;99.90
47162;DHT22;32921;53.256;8.198;2022-12-05T03:33:04;5.00;99.90
47162;DHT22;32921;53.256;8.198;2022-12-05T03:35:36;5.00;99.90
47162;DHT22;32921;53.256;8.198;2022-12-05T03:44:08;5.00;99.90
47162;DHT22;32921;53.256;8.198;2022-12-05T03:49:46;5.00;99.90
47162;DHT22;32921;53.256;8.198;2022-12-05T03:54:44;5.00;99.90
47162;DHT22;32921;53.256;8.198;2022-12-05T03:57:33;5.10;99.90
47162;DHT22;32921;53.256;8.198;2022-12-05T04:00:04;5.00;99.90
47162;DHT22;32921;53.256;8.198;2022-12-05T04:02:48;5.00;99.90
47162;DHT22;32921;53.256;8.198;2022-12-05T04:05:23;5.00;99.90
47162;DHT22;32921;53.256;8.198;2022-12-05T04:07:59;5.10;99.90
47162;DHT22;32921;53.256;8.198;2022-12-05T04:10:34;5.10;99.90
47162;DHT22;32921;53.256;8.198;2022-12-05T04:16:00;5.10;99.90
47162;DHT22;32921;53.256;8.198;2022-12-05T04:18:55;5.20;99.90
47162;DHT22;32921;53.256;8.198;2022-12-05T04:21:27;5.10;99.90
47162;DHT22;32921;53.256;8.198;2022-12-05T04:24:31;5.20;99.90
47162;DHT22;32921;53.256;8.198;2022-12-05T04:27:38;5.10;99.90
47162;DHT22;32921;53.256;8.198;2022-12-05T04:30:12;5.10;99.90
47162;DHT22;32921;53.256;8.198;2022-12-05T04:35:28;5.10;99.90
47162;DHT22;32921;53.256;8.198;2022-12-05T04:38:09;5.10;99.90
47162;DHT22;32921;53.256;8.198;2022-12-05T04:40:41;5.10;99.90
47162;DHT22;32921;53.256;8.198;2022-12-05T04:43:09;5.10;99.90
47162;DHT22;32921;53.256;8.198;2022-12-05T04:45:38;5.10;99.90
47162;DHT22;32921;53.256;8.198;2022-12-05T04:48:10;5.10;99.90
47162;DHT22;32921;53.256;8.198;2022-12-05T04:50:37;5.20;99.90
47162;DHT22;32921;53.256;8.198;2022-12-05T04:53:05;5.10;99.90
47162;DHT22;32921;53.256;8.198;2022-12-05T04:55:33;5.20;99.90
47162;DHT22;32921;53.256;8.198;2022-12-05T04:58:09;5.20;99.90
47162;DHT22;32921;53.256;8.198;2022-12-05T05:01:04;5.20;99.90
47162;DHT22;32921;53.256;8.198;2022-12-05T05:03:45;5.30;99.90
47162;DHT22;32921;53.256;8.198;2022-12-05T05:06:13;5.20;99.90
47162;DHT22;32921;53.256;8.198;2022-12-05T05:08:47;5.20;99.90
47162;DHT22;32921;53.256;8.198;2022-12-05T05:11:22;5.20;99.90
47162;DHT22;32921;53.256;8.198;2022-12-05T05:13:49;5.20;99.90
47162;DHT22;32921;53.256;8.198;2022-12-05T05:16:20;5.30;99.90
47162;DHT22;32921;53.256;8.198;2022-12-05T05:18:47;5.30;99.90
47162;DHT22;32921;53.256;8.198;2022-12-05T05:23:46;5.30;99.90
47162;DHT22;32921;53.256;8.198;2022-12-05T05:26:12;5.30;99.90
47162;DHT22;32921;53.256;8.198;2022-12-05T05:28:38;5.30;99.90
47162;DHT22;32921;53.256;8.198;2022-12-05T05:31:04;5.30;99.90
47162;DHT22;32921;53.256;8.198;2022-12-05T05:33:30;5.30;99.90
47162;DHT22;32921;53.256;8.198;2022-12-05T05:35:56;5.30;99.90
47162;DHT22;32921;53.256;8.198;2022-12-05T05:38:22;5.40;99.90
47162;DHT22;32921;53.256;8.198;2022-12-05T05:40:47;5.40;99.90
47162;DHT22;32921;53.256;8.198;2022-12-05T05:43:13;5.40;99.90
47162;DHT22;32921;53.256;8.198;2022-12-05T05:45:38;5.50;99.90
47162;DHT22;32921;53.256;8.198;2022-12-05T05:48:04;5.50;99.90
47162;DHT22;32921;53.256;8.198;2022-12-05T05:50:30;5.40;99.90
47162;DHT22;32921;53.256;8.198;2022-12-05T05:52:55;5.50;99.90
47162;DHT22;32921;53.256;8.198;2022-12-05T05:55:21;5.40;99.90
47162;DHT22;32921;53.256;8.198;2022-12-05T05:57:47;5.50;99.90
47162;DHT22;32921;53.256;8.198;2022-12-05T06:00:13;5.50;99.90
47162;DHT22;32921;53.256;8.198;2022-12-05T06:02:39;5.50;99.90
47162;DHT22;32921;53.256;8.198;2022-12-05T06:05:05;5.40;99.90
47162;DHT22;32921;53.256;8.198;2022-12-05T06:07:31;5.50;99.90
47162;DHT22;32921;53.256;8.198;2022-12-05T06:09:56;5.50;99.90
47162;DHT22;32921;53.256;8.198;2022-12-05T06:12:22;5.50;99.90
47162;DHT22;32921;53.256;8.198;2022-12-05T06:14:48;5.50;99.90
47162;DHT22;32921;53.256;8.198;2022-12-05T06:17:14;5.50;99.90
47162;DHT22;32921;53.256;8.198;2022-12-05T06:19:40;5.50;99.90
47162;DHT22;32921;53.256;8.198;2022-12-05T06:22:05;5.50;99.90
47162;DHT22;32921;53.256;8.198;2022-12-05T06:24:31;5.50;99.90
47162;DHT22;32921;53.256;8.198;2022-12-05T06:26:56;5.50;99.90
47162;DHT22;32921;53.256;8.198;2022-12-05T06:29:22;5.50;99.90
47162;DHT22;32921;53.256;8.198;2022-12-05T06:31:48;5.50;99.90
47162;DHT22;32921;53.256;8.198;2022-12-05T06:34:13;5.50;99.90
47162;DHT22;32921;53.256;8.198;2022-12-05T06:36:39;5.50;99.90
47162;DHT22;32921;53.256;8.198;2022-12-05T06:39:04;5.50;99.90
47162;DHT22;32921;53.256;8.198;2022-12-05T06:41:30;5.50;99.90
47162;DHT22;32921;53.256;8.198;2022-12-05T06:43:57;5.50;99.90
47162;DHT22;32921;53.256;8.198;2022-12-05T06:46:23;5.50;99.90
47162;DHT22;32921;53.256;8.198;2022-12-05T06:48:54;5.50;99.90
47162;DHT22;32921;53.256;8.198;2022-12-05T06:51:26;5.60;99.90
47162;DHT22;32921;53.256;8.198;2022-12-05T06:53:52;5.60;99.90
47162;DHT22;32921;53.256;8.198;2022-12-05T06:56:19;5.50;99.90
47162;DHT22;32921;53.256;8.198;2022-12-05T06:58:47;5.50;99.90
47162;DHT22;32921;53.256;8.198;2022-12-05T07:01:18;5.50;99.90
47162;DHT22;32921;53.256;8.198;2022-12-05T07:04:05;5.50;99.90
47162;DHT22;32921;53.256;8.198;2022-12-05T07:06:32;5.50;99.90
47162;DHT22;32921;53.256;8.198;2022-12-05T07:08:58;5.50;99.90
47162;DHT22;32921;53.256;8.198;2022-12-05T07:11:23;5.50;99.90
47162;DHT22;32921;53.256;8.198;2022-12-05T07:13:49;5.50;99.90
47162;DHT22;32921;53.256;8.198;2022-12-05T07:16:15;5.40;99.90
47162;DHT22;32921;53.256;8.198;2022-12-05T07:18:40;5.40;99.90
47162;DHT22;32921;53.256;8.198;2022-12-05T07:21:07;5.40;99.90
47162;DHT22;32921;53.256;8.198;2022-12-05T07:23:33;5.40;99.90
47162;DHT22;32921;53.256;8.198;2022-12-05T07:26:03;5.40;99.90
47162;DHT22;32921;53.256;8.198;2022-12-05T07:28:29;5.40;99.90
47162;DHT22;32921;53.256;8.198;2022-12-05T07:31:05;5.40;99.90
47162;DHT22;32921;53.256;8.198;2022-12-05T07:33:31;5.40;99.90
47162;DHT22;32921;53.256;8.198;2022-12-05T07:36:01;5.40;99.90
47162;DHT22;32921;53.256;8.198;2022-12-05T07:38:27;5.40;99.90
47162;DHT22;32921;53.256;8.198;2022-12-05T07:40:53;5.30;99.90
47162;DHT22;32921;53.256;8.198;2022-12-05T07:43:19;5.30;99.90
47162;DHT22;32921;53.256;8.198;2022-12-05T07:45:44;5.30;99.90
47162;DHT22;32921;53.256;8.198;2022-12-05T07:48:10;5.40;99.90
47162;DHT22;32921;53.256;8.198;2022-12-05T07:50:36;5.30;99.90
47162;DHT22;32921;53.256;8.198;2022-12-05T07:53:02;5.40;99.90
47162;DHT22;32921;53.256;8.198;2022-12-05T07:55:27;5.30;99.90
47162;DHT22;32921;53.256;8.198;2022-12-05T07:57:53;5.30;99.90
47162;DHT22;32921;53.256;8.198;2022-12-05T08:00:19;5.30;99.90
47162;DHT22;32921;53.256;8.198;2022-12-05T08:02:45;5.30;99.90
47162;DHT22;32921;53.256;8.198;2022-12-05T08:05:10;5.30;99.90
47162;DHT22;32921;53.256;8.198;2022-12-05T08:07:36;5.30;99.90
47162;DHT22;32921;53.256;8.198;2022-12-05T08:10:02;5.30;99.90
47162;DHT22;32921;53.256;8.198;2022-12-05T08:12:28;5.30;99.90
47162;DHT22;32921;53.256;8.198;2022-12-05T08:14:54;5.30;99.90
47162;DHT22;32921;53.256;8.198;2022-12-05T08:17:19;5.30;99.90
47162;DHT22;32921;53.256;8.198;2022-12-05T08:19:45;5.30;99.90
47162;DHT22;32921;53.256;8.198;2022-12-05T08:22:10;5.30;99.90
47162;DHT22;32921;53.256;8.198;2022-12-05T08:24:36;5.30;99.90
47162;DHT22;32921;53.256;8.198;2022-12-05T08:27:03;5.30;99.90
47162;DHT22;32921;53.256;8.198;2022-12-05T08:29:29;5.30;99.90
47162;DHT22;32921;53.256;8.198;2022-12-05T08:31:54;5.30;99.90
47162;DHT22;32921;53.256;8.198;2022-12-05T08:34:20;5.30;99.90
47162;DHT22;32921;53.256;8.198;2022-12-05T08:36:46;5.30;99.90
47162;DHT22;32921;53.256;8.198;2022-12-05T08:39:13;5.30;99.90
47162;DHT22;32921;53.256;8.198;2022-12-05T08:41:41;5.30;99.90
47162;DHT22;32921;53.256;8.198;2022-12-05T08:44:07;5.30;99.90
47162;DHT22;32921;53.256;8.198;2022-12-05T08:46:36;5.30;99.90
47162;DHT22;32921;53.256;8.198;2022-12-05T08:49:04;5.20;99.90
47162;DHT22;32921;53.256;8.198;2022-12-05T08:51:30;5.30;99.90
47162;DHT22;32921;53.256;8.198;2022-12-05T08:53:56;5.20;99.90
47162;DHT22;32921;53.256;8.198;2022-12-05T08:56:22;5.20;99.90
47162;DHT22;32921;53.256;8.198;2022-12-05T08:58:47;5.20;99.90
47162;DHT22;32921;53.256;8.198;2022-12-05T09:01:16;5.30;99.90
47162;DHT22;32921;53.256;8.198;2022-12-05T09:03:43;5.20;99.90
47162;DHT22;32921;53.256;8.198;2022-12-05T09:06:20;5.30;99.90
47162;DHT22;32921;53.256;8.198;2022-12-05T09:08:47;5.30;99.90
47162;DHT22;32921;53.256;8.198;2022-12-05T09:11:16;5.30;99.90
47162;DHT22;32921;53.256;8.198;2022-12-05T09:13:42;5.30;99.90
47162;DHT22;32921;53.256;8.198;2022-12-05T09:16:10;5.30;99.90
47162;DHT22;32921;53.256;8.198;2022-12-05T09:18:37;5.30;99.90
47162;DHT22;32921;53.256;8.198;2022-12-05T09:21:14;5.30;99.90
47162;DHT22;32921;53.256;8.198;2022-12-05T09:23:41;5.30;99.90
47162;DHT22;32921;53.256;8.198;2022-12-05T09:26:09;5.30;99.90
47162;DHT22;32921;53.256;8.198;2022-12-05T09:28:36;5.30;99.90
47162;DHT22;32921;53.256;8.198;2022-12-05T09:31:05;5.30;99.90
47162;DHT22;32921;53.256;8.198;2022-12-05T09:33:34;5.30;99.90
47162;DHT22;32921;53.256;8.198;2022-12-05T09:36:04;5.30;99.90
47162;DHT22;32921;53.256;8.198;2022-12-05T09:38:30;5.30;99.90
47162;DHT22;32921;53.256;8.198;2022-12-05T09:50:20;5.30;99.90
47162;DHT22;32921;53.256;8.198;2022-12-05T09:58:45;5.30;99.90
47162;DHT22;32921;53.256;8.198;2022-12-05T10:04:14;5.40;99.90
47162;DHT22;32921;53.256;8.198;2022-12-05T10:09:47;5.30;99.90
47162;DHT22;32921;53.256;8.198;2022-12-05T10:15:40;5.30;99.90
47162;DHT22;32921;53.256;8.198;2022-12-05T10:21:23;5.30;99.90
47162;DHT22;32921;53.256;8.198;2022-12-05T10:24:03;5.30;99.90
47162;DHT22;32921;53.256;8.198;2022-12-05T10:26:35;5.30;99.90
47162;DHT22;32921;53.256;8.198;2022-12-05T10:31:31;5.30;99.90
47162;DHT22;32921;53.256;8.198;2022-12-05T10:34:39;5.20;99.90
47162;DHT22;32921;53.256;8.198;2022-12-05T10:37:15;5.30;99.90
47162;DHT22;32921;53.256;8.198;2022-12-05T10:39:42;5.20;99.90
47162;DHT22;32921;53.256;8.198;2022-12-05T10:42:28;5.30;99.90
47162;DHT22;32921;53.256;8.198;2022-12-05T10:44:58;5.30;99.90
47162;DHT22;32921;53.256;8.198;2022-12-05T10:47:27;5.30;99.90
47162;DHT22;32921;53.256;8.198;2022-12-05T10:49:55;5.30;99.90
47162;DHT22;32921;53.256;8.198;2022-12-05T10:52:23;5.30;99.90
47162;DHT22;32921;53.256;8.198;2022-12-05T10:54:54;5.30;99.90
47162;DHT22;32921;53.256;8.198;2022-12-05T10:57:26;5.20;99.90
47162;DHT22;32921;53.256;8.198;2022-12-05T10:59:53;5.20;99.90
47162;DHT22;32921;53.256;8.198;2022-12-05T11:02:30;5.20;99.90
47162;DHT22;32921;53.256;8.198;2022-12-05T11:04:57;5.20;99.90
47162;DHT22;32921;53.256;8.198;2022-12-05T11:07:35;5.30;99.90
47162;DHT22;32921;53.256;8.198;2022-12-05T11:10:21;5.20;99.90
47162;DHT22;32921;53.256;8.198;2022-12-05T11:12:47;5.20;99.90
47162;DHT22;32921;53.256;8.198;2022-12-05T11:17:47;5.20;99.90
47162;DHT22;32921;53.256;8.198;2022-12-05T11:22:46;5.20;99.90
47162;DHT22;32921;53.256;8.198;2022-12-05T11:27:57;5.20;99.90
47162;DHT22;32921;53.256;8.198;2022-12-05T11:30:26;5.20;99.90
47162;DHT22;32921;53.256;8.198;2022-12-05T11:33:19;5.20;99.90
47162;DHT22;32921;53.256;8.198;2022-12-05T11:35:46;5.20;99.90
47162;DHT22;32921;53.256;8.198;2022-12-05T11:38:15;5.20;99.90
47162;DHT22;32921;53.256;8.198;2022-12-05T11:43:47;5.20;99.90
47162;DHT22;32921;53.256;8.198;2022-12-05T11:46:36;5.20;99.90
47162;DHT22;32921;53.256;8.198;2022-12-05T11:52:34;5.20;99.90
47162;DHT22;32921;53.256;8.198;2022-12-05T11:55:25;5.20;99.90
47162;DHT22;32921;53.256;8.198;2022-12-05T11:58:03;5.10;99.90
47162;DHT22;32921;53.256;8.198;2022-12-05T12:04:25;5.20;99.90
47162;DHT22;32921;53.256;8.198;2022-12-05T12:06:28;5.20;99.90
47162;DHT22;32921;53.256;8.198;2022-12-05T12:12:16;5.20;99.90
47162;DHT22;32921;53.256;8.198;2022-12-05T12:17:53;5.20;99.90
47162;DHT22;32921;53.256;8.198;2022-12-05T12:26:29;5.20;99.90
47162;DHT22;32921;53.256;8.198;2022-12-05T12:31:51;5.20;99.90
47162;DHT22;32921;53.256;8.198;2022-12-05T12:40:13;5.20;99.90
47162;DHT22;32921;53.256;8.198;2022-12-05T12:50:34;5.30;99.90
47162;DHT22;32921;53.256;8.198;2022-12-05T12:53:30;5.20;99.90
47162;DHT22;32921;53.256;8.198;2022-12-05T12:58:59;5.20;99.90
47162;DHT22;32921;53.256;8.198;2022-12-05T13:04:16;5.20;99.90
47162;DHT22;32921;53.256;8.198;2022-12-05T13:06:48;5.30;99.90
47162;DHT22;32921;53.256;8.198;2022-12-05T13:09:37;5.30;99.90
47162;DHT22;32921;53.256;8.198;2022-12-05T13:12:09;5.30;99.90
47162;DHT22;32921;53.256;8.198;2022-12-05T13:14:36;5.30;99.90
47162;DHT22;32921;53.256;8.198;2022-12-05T13:17:04;5.40;99.90
47162;DHT22;32921;53.256;8.198;2022-12-05T13:19:47;5.40;99.90
47162;DHT22;32921;53.256;8.198;2022-12-05T13:22:14;5.40;99.90
47162;DHT22;32921;53.256;8.198;2022-12-05T13:24:41;5.30;99.90
47162;DHT22;32921;53.256;8.198;2022-12-05T13:27:14;5.30;99.90
47162;DHT22;32921;53.256;8.198;2022-12-05T13:29:47;5.30;99.90
47162;DHT22;32921;53.256;8.198;2022-12-05T13:34:49;5.20;99.90
47162;DHT22;32921;53.256;8.198;2022-12-05T13:37:25;5.10;99.90
47162;DHT22;32921;53.256;8.198;2022-12-05T13:43:13;5.00;99.90
47162;DHT22;32921;53.256;8.198;2022-12-05T13:45:41;4.90;99.90
47162;DHT22;32921;53.256;8.198;2022-12-05T13:48:21;4.80;99.90
47162;DHT22;32921;53.256;8.198;2022-12-05T13:50:53;4.80;99.90
47162;DHT22;32921;53.256;8.198;2022-12-05T13:55:57;4.80;99.90
47162;DHT22;32921;53.256;8.198;2022-12-05T14:00:49;4.80;99.90
47162;DHT22;32921;53.256;8.198;2022-12-05T14:03:16;4.70;99.90
47162;DHT22;32921;53.256;8.198;2022-12-05T14:05:47;4.60;99.90
47162;DHT22;32921;53.256;8.198;2022-12-05T14:19:43;4.70;99.90
47162;DHT22;32921;53.256;8.198;2022-12-05T14:22:12;4.50;99.90
47162;DHT22;32921;53.256;8.198;2022-12-05T14:25:01;4.50;99.90
47162;DHT22;32921;53.256;8.198;2022-12-05T14:30:24;4.60;99.90
47162;DHT22;32921;53.256;8.198;2022-12-05T14:32:53;4.60;99.90
47162;DHT22;32921;53.256;8.198;2022-12-05T14:35:39;4.50;99.90
47162;DHT22;32921;53.256;8.198;2022-12-05T14:38:07;4.50;99.90
47162;DHT22;32921;53.256;8.198;2022-12-05T14:40:43;4.50;99.90
47162;DHT22;32921;53.256;8.198;2022-12-05T14:43:25;4.60;99.90
47162;DHT22;32921;53.256;8.198;2022-12-05T14:45:55;4.60;99.90
47162;DHT22;32921;53.256;8.198;2022-12-05T14:48:29;4.60;99.90
47162;DHT22;32921;53.256;8.198;2022-12-05T14:50:57;4.60;99.90
47162;DHT22;32921;53.256;8.198;2022-12-05T14:56:19;4.60;99.90
47162;DHT22;32921;53.256;8.198;2022-12-05T14:58:50;4.50;99.90
47162;DHT22;32921;53.256;8.198;2022-12-05T15:01:32;4.40;99.90
47162;DHT22;32921;53.256;8.198;2022-12-05T15:04:14;4.40;99.90
47162;DHT22;32921;53.256;8.198;2022-12-05T15:09:32;4.40;99.90
47162;DHT22;32921;53.256;8.198;2022-12-05T15:12:01;4.40;99.90
47162;DHT22;32921;53.256;8.198;2022-12-05T15:14:30;4.50;99.90
47162;DHT22;32921;53.256;8.198;2022-12-05T15:16:58;4.30;99.90
47162;DHT22;32921;53.256;8.198;2022-12-05T15:19:50;4.20;99.90
47162;DHT22;32921;53.256;8.198;2022-12-05T15:22:18;4.30;99.90
47162;DHT22;32921;53.256;8.198;2022-12-05T15:24:45;4.20;99.90
47162;DHT22;32921;53.256;8.198;2022-12-05T15:27:11;4.20;99.90
47162;DHT22;32921;53.256;8.198;2022-12-05T15:29:38;4.20;99.90
47162;DHT22;32921;53.256;8.198;2022-12-05T15:34:37;4.30;99.90
47162;DHT22;32921;53.256;8.198;2022-12-05T15:37:27;4.20;99.90
47162;DHT22;32921;53.256;8.198;2022-12-05T15:42:35;4.20;99.90
47162;DHT22;32921;53.256;8.198;2022-12-05T15:45:14;4.20;99.90
47162;DHT22;32921;53.256;8.198;2022-12-05T15:47:47;4.20;99.90
47162;DHT22;32921;53.256;8.198;2022-12-05T15:50:15;4.20;99.90
47162;DHT22;32921;53.256;8.198;2022-12-05T15:53:20;4.20;99.90
47162;DHT22;32921;53.256;8.198;2022-12-05T15:55:52;4.20;99.90
47162;DHT22;32921;53.256;8.198;2022-12-05T15:58:28;4.10;99.90
47162;DHT22;32921;53.256;8.198;2022-12-05T16:01:04;4.20;99.90
47162;DHT22;32921;53.256;8.198;2022-12-05T16:03:44;4.20;99.90
47162;DHT22;32921;53.256;8.198;2022-12-05T16:06:17;4.20;99.90
47162;DHT22;32921;53.256;8.198;2022-12-05T16:08:45;4.30;99.90
47162;DHT22;32921;53.256;8.198;2022-12-05T16:11:12;4.30;99.90
47162;DHT22;32921;53.256;8.198;2022-12-05T16:13:51;4.20;99.90
47162;DHT22;32921;53.256;8.198;2022-12-05T16:16:22;4.20;99.90
47162;DHT22;32921;53.256;8.198;2022-12-05T16:18:56;4.20;99.90
47162;DHT22;32921;53.256;8.198;2022-12-05T16:21:40;4.20;99.90
47162;DHT22;32921;53.256;8.198;2022-12-05T16:26:38;4.10;99.90
47162;DHT22;32921;53.256;8.198;2022-12-05T16:29:04;4.10;99.90
47162;DHT22;32921;53.256;8.198;2022-12-05T16:31:31;4.10;99.90
47162;DHT22;32921;53.256;8.198;2022-12-05T16:34:03;4.00;99.90
47162;DHT22;32921;53.256;8.198;2022-12-05T16:36:29;4.00;99.90
47162;DHT22;32921;53.256;8.198;2022-12-05T16:39:12;4.00;99.90
47162;DHT22;32921;53.256;8.198;2022-12-05T16:41:39;4.00;99.90
47162;DHT22;32921;53.256;8.198;2022-12-05T16:46:54;4.00;99.90
47162;DHT22;32921;53.256;8.198;2022-12-05T16:54:24;4.00;99.90
47162;DHT22;32921;53.256;8.198;2022-12-05T16:56:50;4.00;99.90
47162;DHT22;32921;53.256;8.198;2022-12-05T16:59:34;3.90;99.90
47162;DHT22;32921;53.256;8.198;2022-12-05T17:02:00;3.90;99.90
47162;DHT22;32921;53.256;8.198;2022-12-05T17:04:27;3.80;99.90
47162;DHT22;32921;53.256;8.198;2022-12-05T17:06:53;3.80;99.90
47162;DHT22;32921;53.256;8.198;2022-12-05T17:09:18;3.90;99.90
47162;DHT22;32921;53.256;8.198;2022-12-05T17:11:46;3.90;99.90
47162;DHT22;32921;53.256;8.198;2022-12-05T17:14:14;3.90;99.90
47162;DHT22;32921;53.256;8.198;2022-12-05T17:16:41;3.90;99.90
47162;DHT22;32921;53.256;8.198;2022-12-05T17:19:08;3.90;99.90
47162;DHT22;32921;53.256;8.198;2022-12-05T17:21:34;3.90;99.90
47162;DHT22;32921;53.256;8.198;2022-12-05T17:24:00;4.00;99.90
47162;DHT22;32921;53.256;8.198;2022-12-05T17:26:26;3.90;99.90
47162;DHT22;32921;53.256;8.198;2022-12-05T17:28:51;4.00;99.90
47162;DHT22;32921;53.256;8.198;2022-12-05T17:31:22;3.90;99.90
47162;DHT22;32921;53.256;8.198;2022-12-05T17:33:50;3.90;99.90
47162;DHT22;32921;53.256;8.198;2022-12-05T17:36:16;3.90;99.90
47162;DHT22;32921;53.256;8.198;2022-12-05T17:38:42;3.90;99.90
47162;DHT22;32921;53.256;8.198;2022-12-05T17:41:14;3.90;99.90
47162;DHT22;32921;53.256;8.198;2022-12-05T17:43:40;3.90;99.90
47162;DHT22;32921;53.256;8.198;2022-12-05T17:46:06;3.90;99.90
47162;DHT22;32921;53.256;8.198;2022-12-05T17:48:32;3.90;99.90
47162;DHT22;32921;53.256;8.198;2022-12-05T17:50:59;3.90;99.90
47162;DHT22;32921;53.256;8.198;2022-12-05T17:53:27;3.80;99.90
47162;DHT22;32921;53.256;8.198;2022-12-05T17:55:52;4.00;99.90
47162;DHT22;32921;53.256;8.198;2022-12-05T17:58:18;4.00;99.90
47162;DHT22;32921;53.256;8.198;2022-12-05T18:00:45;3.90;99.90
47162;DHT22;32921;53.256;8.198;2022-12-05T18:03:16;3.90;99.90
47162;DHT22;32921;53.256;8.198;2022-12-05T18:05:42;3.90;99.90
47162;DHT22;32921;53.256;8.198;2022-12-05T18:08:08;3.80;99.90
47162;DHT22;32921;53.256;8.198;2022-12-05T18:10:34;4.00;99.90
47162;DHT22;32921;53.256;8.198;2022-12-05T18:12:59;4.00;99.90
47162;DHT22;32921;53.256;8.198;2022-12-05T18:15:25;3.90;99.90
47162;DHT22;32921;53.256;8.198;2022-12-05T18:17:51;3.80;99.90
47162;DHT22;32921;53.256;8.198;2022-12-05T18:20:16;3.80;99.90
47162;DHT22;32921;53.256;8.198;2022-12-05T18:22:42;3.90;99.90
47162;DHT22;32921;53.256;8.198;2022-12-05T18:25:08;4.00;99.90
47162;DHT22;32921;53.256;8.198;2022-12-05T18:27:35;3.90;99.90
47162;DHT22;32921;53.256;8.198;2022-12-05T18:30:03;4.00;99.90
47162;DHT22;32921;53.256;8.198;2022-12-05T18:32:29;3.90;99.90
47162;DHT22;32921;53.256;8.198;2022-12-05T18:34:54;3.90;99.90
47162;DHT22;32921;53.256;8.198;2022-12-05T18:37:26;4.00;99.90
47162;DHT22;32921;53.256;8.198;2022-12-05T18:39:53;3.90;99.90
47162;DHT22;32921;53.256;8.198;2022-12-05T18:42:18;3.80;99.90
47162;DHT22;32921;53.256;8.198;2022-12-05T18:44:44;4.00;99.90
47162;DHT22;32921;53.256;8.198;2022-12-05T18:47:10;3.90;99.90